RAIN

Not for real navigation. The accuracy of this data is not assured See disclaimer for more information



ICAO NAME COUNTRY WIND Kt GUST Kt VIS m TEMP/DEW C BARO METAR
PFYU Fort Yukon, Fort Yukon Airport AK United States 4 0 400 -1/-1 29.91 PFYU 150756Z AUTO 06004KT 0.25SM FZFG OVC003 M01/M01 A2991 RMK AO2 SLP154 T10061006 FZRANO
KEEN Keene, Dillant-Hopkins Airport NH United States 0 0 400 2/2 30.18 KEEN 150756Z AUTO 00000KT 0.25SM FG OVC002 02/02 A3018 RMK AO2 SLP241 T00220022 FZRANO $
EGMC Southend-On-Sea United Kingdom 6 0 700 14/13 29.77 EGMC 150750Z 33006KT 0700 R05/1100 -RADZ FG BKN002 14/13 Q1008
PARY 10 0 800 1/1 29.77 PARY 150756Z AUTO 08010KT 0.5SM FG OVC002 01/01 A2977 RMK AO2 SLP110 T00110006 400330000 FZRANO
KFIG CLEARFIELD-LAWRENCE AIRPORT PA United States 4 0 800 8/8 30.03 KFIG 150754Z AUTO 02004KT 0.5SM -RA FG VV003 08/08 A3003 RMK AO2 SLP172 P0001 T00830083

Show more